Time;durP1;ratioP1;P1;durP2;ratioP2;P2;SDS_P1;SDS_P2;PMS_P1;PMS_P2;Temp;Humidity;BMP_temperature;BMP_pressure;BME280_temperature;BME280_humidity;BME280_pressure;Samples;Min_cycle;Max_cycle;Signal;HPM_P1;HPM_P2
2023/02/18 00:01:30;;;;;;;46.75;14.00;;;14.80;99.90;;;;;;5014474;28;25069;-74
2023/02/18 00:03:58;;;;;;;55.28;16.20;;;14.80;99.90;;;;;;5034266;28;25109;-74
2023/02/18 00:06:27;;;;;;;55.95;14.77;;;15.00;99.90;;;;;;5033912;28;25074;-71
2023/02/18 00:08:53;;;;;;;60.55;16.83;;;15.00;99.90;;;;;;5010952;28;25140;-74
2023/02/18 00:11:20;;;;;;;60.00;17.48;;;15.00;99.90;;;;;;5028163;28;25066;-71
2023/02/18 00:13:56;;;;;;;66.15;17.50;;;15.20;99.90;;;;;;5020879;28;25158;-73
2023/02/18 00:16:24;;;;;;;71.40;17.73;;;15.30;99.90;;;;;;5021058;28;25093;-72
2023/02/18 00:18:55;;;;;;;69.57;18.08;;;15.20;99.90;;;;;;5030166;28;25071;-71
2023/02/18 00:21:21;;;;;;;62.08;17.40;;;15.40;99.90;;;;;;5030570;28;25051;-73
2023/02/18 00:23:47;;;;;;;66.15;19.65;;;15.40;99.90;;;;;;5020867;28;25127;-73
2023/02/18 00:26:18;;;;;;;75.63;20.08;;;15.60;99.90;;;;;;5012742;28;25046;-71
2023/02/18 00:28:44;;;;;;;67.60;17.90;;;15.60;99.90;;;;;;5029027;28;25083;-72
2023/02/18 00:31:18;;;;;;;70.53;19.17;;;15.60;99.90;;;;;;5029894;28;25070;-75
2023/02/18 00:33:44;;;;;;;83.40;21.77;;;15.70;99.90;;;;;;5030293;28;25080;-72
2023/02/18 00:36:14;;;;;;;88.93;21.88;;;15.80;99.90;;;;;;5029504;28;25070;-73
2023/02/18 00:38:45;;;;;;;70.88;20.95;;;15.80;99.90;;;;;;5029007;28;25066;-73
2023/02/18 00:41:10;;;;;;;76.80;20.80;;;16.00;99.90;;;;;;5029798;28;25071;-72
2023/02/18 00:43:36;;;;;;;88.97;23.60;;;15.90;99.90;;;;;;5029703;28;25078;-73
2023/02/18 00:46:01;;;;;;;95.72;23.70;;;16.10;99.90;;;;;;5016737;28;25154;-71
2023/02/18 00:48:27;;;;;;;78.03;20.27;;;16.20;99.90;;;;;;5025993;28;25070;-72
2023/02/18 00:50:52;;;;;;;77.93;22.45;;;16.30;99.90;;;;;;5023506;28;25173;-71
2023/02/18 00:53:18;;;;;;;78.22;23.08;;;16.30;99.90;;;;;;5027089;28;25052;-73
2023/02/18 00:55:46;;;;;;;75.95;20.42;;;16.40;99.90;;;;;;5018689;28;25110;-74
2023/02/18 00:58:12;;;;;;;71.70;19.92;;;16.30;99.90;;;;;;5026363;28;25061;-72
2023/02/18 01:00:38;;;;;;;79.72;20.83;;;16.50;99.90;;;;;;5024162;28;25073;-72
2023/02/18 01:03:06;;;;;;;72.07;20.08;;;16.40;99.90;;;;;;5028208;28;25058;-73
2023/02/18 01:05:32;;;;;;;72.55;21.02;;;16.60;99.90;;;;;;5026335;28;25165;-72
2023/02/18 01:07:57;;;;;;;73.35;21.55;;;16.50;99.90;;;;;;5011833;28;25100;-72
2023/02/18 01:10:23;;;;;;;63.83;20.83;;;16.50;99.90;;;;;;5028527;28;25067;-72
2023/02/18 01:12:48;;;;;;;79.93;21.40;;;16.70;99.90;;;;;;5006802;28;25145;-74
2023/02/18 01:15:15;;;;;;;71.22;20.50;;;16.50;99.90;;;;;;5026625;28;25090;-73
2023/02/18 01:17:41;;;;;;;69.00;20.35;;;16.60;99.90;;;;;;5028957;28;25074;-74
2023/02/18 01:20:07;;;;;;;71.72;20.60;;;16.60;99.90;;;;;;5029667;28;25067;-73
2023/02/18 01:22:32;;;;;;;63.00;19.75;;;16.70;99.90;;;;;;5029691;28;25083;-73
2023/02/18 01:24:58;;;;;;;72.43;19.40;;;16.70;99.90;;;;;;5028277;28;25061;-73
2023/02/18 01:27:24;;;;;;;70.13;20.25;;;16.70;99.90;;;;;;5029426;28;25063;-72
2023/02/18 01:29:49;;;;;;;69.85;18.85;;;16.60;99.90;;;;;;5027977;28;25048;-74
2023/02/18 01:32:15;;;;;;;72.57;19.05;;;16.50;99.90;;;;;;5012076;28;25099;-75
2023/02/18 01:34:40;;;;;;;74.97;21.73;;;16.70;99.90;;;;;;5025541;28;25094;-73
2023/02/18 01:37:06;;;;;;;80.63;26.13;;;16.60;99.90;;;;;;5023906;28;25102;-73
2023/02/18 01:39:31;;;;;;;91.10;31.80;;;16.60;99.90;;;;;;5027663;28;25071;-71
2023/02/18 01:41:57;;;;;;;87.82;25.80;;;16.60;99.90;;;;;;5029883;28;25059;-71
2023/02/18 01:44:25;;;;;;;81.85;25.27;;;16.70;99.90;;;;;;5024341;28;25103;-71
2023/02/18 01:46:52;;;;;;;70.28;22.52;;;16.50;99.90;;;;;;5028358;28;25149;-71
2023/02/18 01:49:37;;;;;;;71.85;21.15;;;16.70;99.90;;;;;;5028069;28;25084;-72
2023/02/18 01:52:14;;;;;;;67.22;19.40;;;16.70;99.90;;;;;;5026797;28;25071;-75
2023/02/18 01:54:43;;;;;;;58.88;19.73;;;16.70;99.90;;;;;;5027195;28;25104;-74
2023/02/18 01:57:15;;;;;;;70.30;19.75;;;16.80;99.90;;;;;;5022563;28;25068;-73
2023/02/18 01:59:47;;;;;;;;;;;16.60;99.90;;;;;;5028270;28;25086;-73
2023/02/18 02:02:15;;;;;;;80.53;20.85;;;16.60;99.90;;;;;;5028208;28;25064;-73
2023/02/18 02:04:41;;;;;;;67.13;18.38;;;16.70;99.90;;;;;;5032084;28;25058;-70
2023/02/18 02:07:08;;;;;;;71.20;19.08;;;16.60;99.90;;;;;;5031194;28;25073;-73
2023/02/18 02:09:34;;;;;;;67.00;17.90;;;16.60;99.90;;;;;;5010446;28;25057;-71
2023/02/18 02:12:24;;;;;;;62.67;18.58;;;16.80;99.90;;;;;;5028591;28;25174;-72
2023/02/18 02:15:00;;;;;;;66.03;18.98;;;16.70;99.90;;;;;;5027344;28;25146;-73
2023/02/18 02:17:46;;;;;;;59.63;19.02;;;16.90;99.90;;;;;;5026660;28;25083;-72
2023/02/18 02:20:36;;;;;;;66.15;20.38;;;16.80;99.90;;;;;;5021949;28;25061;-73
2023/02/18 02:23:39;;;;;;;67.63;18.40;;;16.90;99.90;;;;;;5027783;28;25099;-73
2023/02/18 02:26:42;;;;;;;54.42;17.70;;;16.90;99.90;;;;;;5025974;28;25069;-73
2023/02/18 02:29:23;;;;;;;;;;;17.00;99.90;;;;;;5025627;28;25082;-73
2023/02/18 02:32:10;;;;;;;63.88;18.55;;;16.90;99.90;;;;;;5027264;28;24074;-73
2023/02/18 02:34:41;;;;;;;56.45;18.30;;;16.90;99.90;;;;;;5020681;28;25057;-72
2023/02/18 02:37:09;;;;;;;59.83;17.17;;;16.60;99.90;;;;;;5024462;28;25058;-74
2023/02/18 02:39:53;;;;;;;65.50;20.13;;;17.30;99.90;;;;;;5027132;28;25098;-74
2023/02/18 02:42:37;;;;;;;69.45;18.67;;;17.20;99.90;;;;;;5008863;28;25071;-73
2023/02/18 02:45:13;;;;;;;71.80;18.30;;;16.80;99.90;;;;;;5024566;28;25052;-75
2023/02/18 02:48:08;;;;;;;62.55;17.75;;;16.90;99.90;;;;;;5021390;28;25145;-75
2023/02/18 02:51:01;;;;;;;56.50;18.15;;;17.30;99.90;;;;;;4966479;28;25059;-73
2023/02/18 02:53:29;;;;;;;54.90;17.35;;;16.90;99.90;;;;;;5025067;28;25057;-75
2023/02/18 02:55:55;;;;;;;57.03;17.08;;;17.40;99.90;;;;;;5025418;28;25057;-74
2023/02/18 02:58:21;;;;;;;52.00;15.80;;;17.00;99.90;;;;;;5022907;28;25073;-75
2023/02/18 03:01:17;;;;;;;34.10;12.63;;;17.50;99.90;;;;;;5025979;28;25082;-74
2023/02/18 03:04:02;;;;;;;36.65;12.52;;;17.10;99.90;;;;;;5030986;28;25091;-74
2023/02/18 03:06:59;;;;;;;47.10;13.85;;;17.60;99.90;;;;;;5020188;28;25085;-72
2023/02/18 03:09:38;;;;;;;29.55;11.63;;;17.20;99.90;;;;;;5016371;28;25068;-74
2023/02/18 03:12:31;;;;;;;28.50;10.30;;;17.50;99.90;;;;;;5022826;28;25157;-74
2023/02/18 03:15:13;;;;;;;25.23;9.20;;;17.20;99.90;;;;;;5012141;28;25070;-75
2023/02/18 03:17:57;;;;;;;30.23;10.40;;;17.40;99.90;;;;;;5023363;28;25088;-74
2023/02/18 03:20:35;;;;;;;24.70;8.85;;;17.20;99.90;;;;;;5030534;28;25100;-74
2023/02/18 03:23:06;;;;;;;25.90;9.55;;;17.30;99.90;;;;;;5029422;28;25095;-74
2023/02/18 03:25:34;;;;;;;30.13;9.13;;;17.80;99.90;;;;;;5034515;28;25093;-76
2023/02/18 03:28:06;;;;;;;31.67;9.55;;;17.70;99.90;;;;;;5024213;28;25069;-74
2023/02/18 03:30:49;;;;;;;35.58;10.10;;;17.80;99.90;;;;;;5043088;28;25058;-75
2023/02/18 03:33:19;;;;;;;32.55;9.70;;;18.00;99.90;;;;;;5035883;28;25203;-76
2023/02/18 03:35:47;;;;;;;22.00;8.77;;;17.40;99.90;;;;;;5036430;28;25094;-75
2023/02/18 03:38:19;;;;;;;28.45;9.93;;;17.40;99.90;;;;;;5042072;28;25067;-74
2023/02/18 03:40:45;;;;;;;26.67;9.85;;;17.50;99.90;;;;;;5033318;28;25096;-73
2023/02/18 03:43:10;;;;;;;31.63;11.82;;;17.90;99.90;;;;;;5031944;28;25153;-76
2023/02/18 03:45:36;;;;;;;39.70;13.77;;;17.50;99.90;;;;;;5036585;28;25101;-74
2023/02/18 03:48:02;;;;;;;39.85;14.45;;;17.50;99.90;;;;;;5013767;28;25071;-75
2023/02/18 03:50:27;;;;;;;47.92;15.48;;;17.40;99.90;;;;;;5036794;28;25177;-76
2023/02/18 03:52:53;;;;;;;36.50;14.65;;;17.40;99.90;;;;;;5036357;28;25080;-77
2023/02/18 03:55:18;;;;;;;27.92;12.55;;;17.50;99.90;;;;;;5027798;28;25135;-73
2023/02/18 03:57:44;;;;;;;36.60;13.45;;;17.80;99.90;;;;;;5031287;28;25063;-76
2023/02/18 04:00:10;;;;;;;29.15;11.45;;;17.90;99.90;;;;;;5025788;28;25150;-75
2023/02/18 04:02:36;;;;;;;37.10;13.40;;;17.80;99.90;;;;;;5028483;28;25150;-73
2023/02/18 04:05:02;;;;;;;28.88;11.93;;;17.40;99.90;;;;;;5026491;28;25141;-76
2023/02/18 04:07:27;;;;;;;28.27;11.68;;;17.30;99.90;;;;;;5025351;28;25081;-77
2023/02/18 04:09:53;;;;;;;30.20;12.23;;;17.60;99.90;;;;;;5033255;28;25070;-75
2023/02/18 04:12:19;;;;;;;24.52;10.88;;;17.30;99.90;;;;;;5038161;28;25075;-75
2023/02/18 04:14:44;;;;;;;31.08;12.05;;;17.30;99.90;;;;;;5037650;28;25087;-74
2023/02/18 04:17:10;;;;;;;32.78;13.07;;;17.80;99.90;;;;;;5036430;28;25156;-75
2023/02/18 04:19:35;;;;;;;26.35;11.45;;;17.60;99.90;;;;;;5039502;28;25152;-76
2023/02/18 04:22:01;;;;;;;27.48;11.48;;;17.40;99.90;;;;;;5033398;28;25086;-74
2023/02/18 04:24:27;;;;;;;28.05;12.85;;;17.80;99.90;;;;;;5034168;28;25070;-73
2023/02/18 04:26:52;;;;;;;28.08;12.93;;;17.70;99.90;;;;;;5031315;28;25059;-76
2023/02/18 04:29:18;;;;;;;27.42;11.52;;;17.40;99.90;;;;;;5028872;28;25070;-75
2023/02/18 04:31:43;;;;;;;31.60;12.43;;;17.20;99.90;;;;;;5029321;28;25097;-78
2023/02/18 04:34:09;;;;;;;24.33;11.20;;;17.80;99.90;;;;;;5035772;28;25071;-76
2023/02/18 04:36:35;;;;;;;29.95;11.50;;;17.50;99.90;;;;;;5038971;28;25064;-77
2023/02/18 04:39:00;;;;;;;23.48;10.70;;;17.50;99.90;;;;;;5044196;28;25092;-77
2023/02/18 04:41:26;;;;;;;24.77;10.13;;;17.40;99.90;;;;;;5026858;28;25078;-74
2023/02/18 04:43:51;;;;;;;20.42;9.38;;;17.60;99.90;;;;;;5030746;28;25175;-76
2023/02/18 04:46:17;;;;;;;19.45;7.80;;;17.40;99.90;;;;;;5028317;28;25052;-75
2023/02/18 04:48:43;;;;;;;17.65;7.90;;;17.00;99.90;;;;;;5030254;28;25147;-76
2023/02/18 04:51:08;;;;;;;17.05;7.78;;;17.50;99.90;;;;;;5026119;28;25071;-76
2023/02/18 04:53:34;;;;;;;19.08;6.90;;;17.30;99.90;;;;;;5017525;28;25156;-78
2023/02/18 04:56:00;;;;;;;13.63;5.75;;;16.90;99.90;;;;;;5035206;28;25068;-76
2023/02/18 04:58:26;;;;;;;13.52;5.38;;;17.30;99.90;;;;;;5027051;28;25139;-76
2023/02/18 05:00:52;;;;;;;13.23;5.53;;;17.30;99.90;;;;;;5033910;28;25163;-77
2023/02/18 05:03:18;;;;;;;19.05;6.47;;;17.10;99.90;;;;;;5028247;28;25049;-77
2023/02/18 05:05:44;;;;;;;21.45;6.18;;;16.80;99.90;;;;;;5013871;28;25054;-77
2023/02/18 05:08:10;;;;;;;22.77;8.10;;;16.90;99.90;;;;;;5035281;28;25036;-75
2023/02/18 05:10:37;;;;;;;27.95;9.18;;;16.90;99.90;;;;;;5044018;28;25070;-76
2023/02/18 05:13:02;;;;;;;30.10;10.30;;;16.90;99.90;;;;;;5030491;28;25074;-79
2023/02/18 05:15:28;;;;;;;37.88;11.63;;;17.00;99.90;;;;;;5028782;28;25101;-78
2023/02/18 05:17:53;;;;;;;55.95;12.20;;;17.00;99.90;;;;;;5028336;28;25109;-77
2023/02/18 05:20:19;;;;;;;37.97;11.60;;;17.00;99.90;;;;;;5025291;28;25042;-77
2023/02/18 05:22:45;;;;;;;42.92;12.45;;;17.50;99.90;;;;;;5025193;28;25066;-76
2023/02/18 05:25:10;;;;;;;47.03;13.15;;;17.60;99.90;;;;;;5027118;28;25055;-74
2023/02/18 05:27:36;;;;;;;48.08;13.38;;;17.60;99.90;;;;;;5026124;28;25062;-78
2023/02/18 05:30:02;;;;;;;36.78;11.40;;;17.60;99.90;;;;;;5028592;28;25102;-74
2023/02/18 05:32:27;;;;;;;35.38;11.90;;;17.30;99.90;;;;;;5034510;28;25064;-76
2023/02/18 05:34:53;;;;;;;32.72;11.75;;;17.60;99.90;;;;;;5029173;28;25057;-74
2023/02/18 05:37:18;;;;;;;33.30;11.32;;;17.40;99.90;;;;;;5025788;28;25133;-76
2023/02/18 05:39:45;;;;;;;35.70;10.40;;;17.70;99.90;;;;;;5030401;28;25106;-73
2023/02/18 05:42:10;;;;;;;30.38;11.20;;;17.80;99.90;;;;;;5032533;28;25083;-74
2023/02/18 05:44:36;;;;;;;31.42;10.35;;;17.50;99.90;;;;;;5026322;28;25099;-75
2023/02/18 05:47:08;;;;;;;26.63;10.52;;;17.30;99.90;;;;;;5028265;28;25074;-77
2023/02/18 05:49:35;;;;;;;27.75;10.48;;;17.40;99.90;;;;;;5026890;28;25098;-75
2023/02/18 05:52:01;;;;;;;31.58;10.18;;;17.80;99.90;;;;;;5032247;28;25093;-76
2023/02/18 05:54:27;;;;;;;27.05;10.10;;;17.90;99.90;;;;;;5024388;28;25154;-78
2023/02/18 05:56:53;;;;;;;27.65;9.80;;;17.40;99.90;;;;;;5030222;28;25065;-75
2023/02/18 05:59:19;;;;;;;31.90;10.15;;;17.30;99.90;;;;;;5026688;28;25066;-75
2023/02/18 06:01:45;;;;;;;29.48;8.52;;;17.40;99.90;;;;;;5022129;28;25124;-75
2023/02/18 06:04:12;;;;;;;22.42;10.10;;;17.80;99.90;;;;;;4995983;28;25066;-76
2023/02/18 06:06:38;;;;;;;28.58;10.23;;;17.30;99.90;;;;;;5022308;28;25171;-75
2023/02/18 06:09:04;;;;;;;31.60;10.15;;;17.50;99.90;;;;;;5021631;28;25056;-75
2023/02/18 06:11:31;;;;;;;33.67;12.55;;;17.70;99.90;;;;;;5022036;28;25077;-78
2023/02/18 06:13:56;;;;;;;39.13;12.57;;;17.50;99.90;;;;;;5028466;28;25166;-78
2023/02/18 06:16:22;;;;;;;26.33;10.15;;;17.40;99.90;;;;;;5027275;28;25054;-80
2023/02/18 06:18:48;;;;;;;27.17;10.02;;;17.50;99.90;;;;;;5031684;28;25072;-79
2023/02/18 06:21:13;;;;;;;37.35;11.65;;;17.20;99.90;;;;;;5031647;28;25072;-78
2023/02/18 06:23:39;;;;;;;28.52;10.43;;;16.90;99.90;;;;;;5026612;28;25070;-78
2023/02/18 06:26:06;;;;;;;28.92;9.90;;;17.30;99.90;;;;;;5024783;28;25197;-77
2023/02/18 06:28:32;;;;;;;28.17;8.93;;;16.90;99.90;;;;;;5007307;28;25135;-78
2023/02/18 06:30:57;;;;;;;25.95;8.48;;;17.30;99.90;;;;;;5026970;28;25065;-78
2023/02/18 06:33:23;;;;;;;24.48;7.68;;;17.20;99.90;;;;;;5025312;28;25043;-79
2023/02/18 06:35:57;;;;;;;23.55;8.70;;;17.10;99.90;;;;;;5021711;28;25068;-78
2023/02/18 06:38:23;;;;;;;26.50;8.38;;;17.10;99.90;;;;;;5010825;28;25079;-76
2023/02/18 06:40:49;;;;;;;31.50;9.80;;;17.10;99.90;;;;;;5022353;28;25084;-77
2023/02/18 06:43:15;;;;;;;42.72;9.77;;;16.70;99.90;;;;;;5022317;28;25063;-79
2023/02/18 06:45:40;;;;;;;30.15;9.05;;;16.90;99.90;;;;;;5025134;28;25073;-80
2023/02/18 06:48:06;;;;;;;42.25;10.50;;;16.90;99.90;;;;;;5021998;28;25139;-79
2023/02/18 06:50:31;;;;;;;42.47;9.50;;;16.70;99.90;;;;;;5020933;28;25071;-75
2023/02/18 06:52:58;;;;;;;34.33;8.30;;;16.40;99.90;;;;;;5024236;28;25075;-78
2023/02/18 06:55:24;;;;;;;43.28;10.25;;;16.70;99.90;;;;;;5012126;28;25065;-76
2023/02/18 06:57:50;;;;;;;40.53;9.65;;;16.30;99.90;;;;;;5019625;28;25054;-78
2023/02/18 07:00:16;;;;;;;30.50;8.25;;;16.40;99.90;;;;;;5020366;28;25134;-77
2023/02/18 07:02:43;;;;;;;39.53;7.78;;;16.20;99.90;;;;;;5022770;28;25125;-77
2023/02/18 07:05:08;;;;;;;35.53;7.10;;;16.00;99.90;;;;;;5025557;28;25059;-78
2023/02/18 07:07:34;;;;;;;27.83;6.57;;;16.10;99.90;;;;;;5021658;28;25134;-77
2023/02/18 07:10:00;;;;;;;41.95;8.73;;;16.00;99.90;;;;;;5027349;28;25156;-79
2023/02/18 07:12:26;;;;;;;37.05;6.88;;;16.20;99.90;;;;;;5025198;28;25066;-79
2023/02/18 07:14:51;;;;;;;33.03;5.55;;;16.10;99.90;;;;;;5019276;28;25184;-80
2023/02/18 07:17:17;;;;;;;32.80;5.82;;;16.00;99.90;;;;;;5038121;28;25057;-76
2023/02/18 07:19:42;;;;;;;33.50;5.82;;;15.70;99.90;;;;;;5034101;28;25063;-78
2023/02/18 07:22:08;;;;;;;26.95;4.57;;;15.50;99.90;;;;;;5032269;28;25103;-77
2023/02/18 07:24:33;;;;;;;28.13;5.03;;;15.70;99.90;;;;;;5029909;28;25055;-76
2023/02/18 07:26:59;;;;;;;30.08;4.47;;;15.30;99.90;;;;;;5035906;28;25078;-76
2023/02/18 07:29:25;;;;;;;25.38;4.68;;;15.30;99.90;;;;;;5026243;28;25053;-78
2023/02/18 07:31:50;;;;;;;31.58;5.20;;;15.10;99.90;;;;;;5025932;28;25144;-77
2023/02/18 07:34:16;;;;;;;23.50;3.90;;;15.10;99.90;;;;;;5026726;28;25083;-75
2023/02/18 07:36:41;;;;;;;36.55;4.45;;;15.00;99.90;;;;;;5021651;28;25073;-75
2023/02/18 07:39:07;;;;;;;23.33;3.78;;;14.80;99.90;;;;;;5024744;28;25117;-76
2023/02/18 07:41:33;;;;;;;29.08;5.28;;;14.70;99.90;;;;;;5027325;28;25106;-78
2023/02/18 07:43:58;;;;;;;23.73;3.90;;;14.70;99.90;;;;;;5023555;28;25085;-77
2023/02/18 07:46:24;;;;;;;21.20;4.07;;;14.60;99.90;;;;;;5050072;28;25062;-76
2023/02/18 07:48:50;;;;;;;25.90;4.00;;;14.50;99.90;;;;;;5042938;28;25165;-76
2023/02/18 07:51:15;;;;;;;27.85;4.80;;;14.20;99.90;;;;;;5022783;28;25063;-77
2023/02/18 07:53:41;;;;;;;23.45;4.70;;;14.20;99.90;;;;;;5010970;28;25087;-76
2023/02/18 07:56:06;;;;;;;26.30;3.72;;;14.10;99.90;;;;;;5027738;28;25144;-75
2023/02/18 07:58:35;;;;;;;14.20;3.70;;;14.00;99.90;;;;;;5033715;28;25081;-81
2023/02/18 08:01:08;;;;;;;23.05;3.05;;;13.80;99.90;;;;;;5021453;28;25071;-74
2023/02/18 08:03:34;;;;;;;19.10;3.45;;;13.60;99.90;;;;;;5034626;28;25073;-75
2023/02/18 08:06:01;;;;;;;26.63;4.50;;;13.50;99.90;;;;;;5032713;28;25129;-76
2023/02/18 08:08:30;;;;;;;20.30;3.50;;;13.30;99.90;;;;;;5031272;28;25162;-77
2023/02/18 08:10:57;;;;;;;22.02;3.58;;;13.10;99.90;;;;;;5024146;28;25077;-74
2023/02/18 08:13:23;;;;;;;21.92;5.00;;;12.90;99.90;;;;;;5036713;28;25081;-76
2023/02/18 08:15:49;;;;;;;17.33;3.30;;;12.80;99.90;;;;;;5030160;28;25066;-78
2023/02/18 08:18:18;;;;;;;26.80;5.10;;;12.70;99.90;;;;;;5018046;28;25079;-78
2023/02/18 08:20:46;;;;;;;14.38;4.63;;;12.60;99.90;;;;;;5026114;28;25069;-77
2023/02/18 08:23:13;;;;;;;20.70;5.38;;;12.50;99.90;;;;;;5014939;28;25062;-79
2023/02/18 08:25:38;;;;;;;19.85;4.80;;;12.30;99.90;;;;;;5034914;28;25143;-75
2023/02/18 08:28:04;;;;;;;17.88;4.28;;;12.20;99.90;;;;;;5032904;28;25073;-75
2023/02/18 08:30:30;;;;;;;22.63;4.63;;;12.00;99.90;;;;;;5036150;28;25062;-80
2023/02/18 08:32:56;;;;;;;13.52;3.50;;;11.90;99.90;;;;;;5021602;28;25056;-78
2023/02/18 08:35:21;;;;;;;20.77;2.95;;;11.70;99.90;;;;;;5024411;28;25056;-77
2023/02/18 08:37:47;;;;;;;22.65;5.00;;;11.60;99.90;;;;;;5021667;28;25150;-75
2023/02/18 08:40:13;;;;;;;12.20;2.72;;;11.50;99.90;;;;;;5023753;28;25050;-77
2023/02/18 08:42:39;;;;;;;15.07;3.83;;;11.40;99.90;;;;;;5030385;28;25100;-78
2023/02/18 08:45:05;;;;;;;18.10;3.15;;;11.40;99.90;;;;;;5021290;28;25047;-76
2023/02/18 08:47:31;;;;;;;18.35;3.15;;;11.30;99.90;;;;;;5018836;28;25161;-75
2023/02/18 08:49:57;;;;;;;16.98;3.97;;;11.30;99.90;;;;;;5022898;28;25119;-75
2023/02/18 08:52:23;;;;;;;21.25;3.17;;;11.20;99.90;;;;;;5022460;28;25144;-77
2023/02/18 08:54:49;;;;;;;26.17;5.22;;;10.80;99.90;;;;;;5022457;28;25075;-77
2023/02/18 08:57:14;;;;;;;13.73;3.15;;;10.60;99.90;;;;;;5019869;28;25124;-75
2023/02/18 08:59:40;;;;;;;21.38;4.13;;;10.60;99.90;;;;;;5022775;28;25059;-75
2023/02/18 09:02:05;;;;;;;22.30;3.53;;;10.50;99.90;;;;;;5027707;28;25065;-76
2023/02/18 09:04:31;;;;;;;16.20;2.90;;;10.50;99.90;;;;;;5023434;28;25080;-73
2023/02/18 09:06:57;;;;;;;23.00;3.10;;;10.50;99.90;;;;;;5029910;28;25148;-76
2023/02/18 09:09:22;;;;;;;14.60;3.17;;;10.40;99.90;;;;;;5030287;28;25170;-73
2023/02/18 09:11:48;;;;;;;19.38;2.78;;;10.40;99.90;;;;;;5022392;28;25070;-74
2023/02/18 09:14:14;;;;;;;11.10;2.60;;;10.30;99.90;;;;;;5038588;28;25162;-77
2023/02/18 09:16:40;;;;;;;18.33;3.78;;;10.30;99.90;;;;;;5020134;28;25050;-78
2023/02/18 09:19:06;;;;;;;17.67;3.00;;;10.30;99.90;;;;;;5030724;28;25127;-76
2023/02/18 09:21:32;;;;;;;20.35;3.55;;;10.30;99.90;;;;;;5031484;28;25084;-74
2023/02/18 09:23:58;;;;;;;15.85;2.45;;;10.30;99.90;;;;;;5011780;28;25044;-73
2023/02/18 09:26:25;;;;;;;15.77;3.00;;;10.30;99.90;;;;;;5011354;28;25088;-77
2023/02/18 09:28:51;;;;;;;18.70;2.65;;;10.30;99.90;;;;;;5027460;28;25061;-76
2023/02/18 09:31:20;;;;;;;18.58;2.67;;;10.30;99.90;;;;;;5031823;28;25020;-74
2023/02/18 09:34:00;;;;;;;14.15;2.58;;;10.30;99.90;;;;;;5034746;28;25059;-76
2023/02/18 09:36:26;;;;;;;14.90;3.22;;;10.30;99.90;;;;;;5027261;28;25148;-72
2023/02/18 09:38:53;;;;;;;18.15;2.90;;;10.30;99.90;;;;;;5013228;28;25078;-75
2023/02/18 09:41:42;;;;;;;10.98;2.15;;;10.30;99.90;;;;;;5030665;28;25071;-77
2023/02/18 09:44:23;;;;;;;18.10;2.50;;;10.40;99.90;;;;;;5011810;28;25116;-77
2023/02/18 09:46:58;;;;;;;11.70;2.35;;;10.40;99.90;;;;;;5008852;28;25086;-78
2023/02/18 09:49:32;;;;;;;14.63;2.65;;;10.30;99.90;;;;;;5022406;28;25064;-75
2023/02/18 09:52:10;;;;;;;17.58;3.70;;;10.40;99.90;;;;;;5012712;28;25141;-74
2023/02/18 09:54:36;;;;;;;14.75;2.28;;;10.40;99.90;;;;;;5030697;28;25079;-75
2023/02/18 09:57:03;;;;;;;16.35;2.72;;;10.50;99.90;;;;;;5012604;28;25068;-75
2023/02/18 09:59:30;;;;;;;14.07;3.63;;;10.40;99.90;;;;;;5030910;28;25080;-76
2023/02/18 10:01:56;;;;;;;14.77;2.85;;;10.40;99.90;;;;;;5034446;28;25117;-76
2023/02/18 10:04:39;;;;;;;14.48;3.15;;;10.50;99.90;;;;;;5030001;28;25119;-76
2023/02/18 10:07:05;;;;;;;11.55;2.20;;;10.50;99.90;;;;;;5029686;28;25074;-74
2023/02/18 10:09:34;;;;;;;9.02;2.10;;;10.50;99.90;;;;;;5021373;28;25051;-75
2023/02/18 10:12:14;;;;;;;12.18;2.42;;;10.60;99.90;;;;;;5025824;28;25051;-73
2023/02/18 10:14:42;;;;;;;12.88;2.50;;;10.60;99.90;;;;;;5019620;28;25092;-75
2023/02/18 10:17:14;;;;;;;15.32;2.63;;;10.60;99.90;;;;;;5016994;28;25055;-73
2023/02/18 10:19:40;;;;;;;9.10;2.33;;;10.60;99.90;;;;;;5011177;28;25071;-73
2023/02/18 10:22:08;;;;;;;14.35;2.80;;;10.70;99.90;;;;;;5022429;28;25086;-77
2023/02/18 10:24:45;;;;;;;15.77;2.95;;;10.70;99.90;;;;;;5027377;28;25125;-72
2023/02/18 10:27:23;;;;;;;22.23;3.38;;;10.70;99.90;;;;;;5026017;28;25083;-74
2023/02/18 10:29:48;;;;;;;20.27;6.32;;;10.70;99.90;;;;;;5013007;28;25071;-74
2023/02/18 10:32:34;;;;;;;12.93;2.70;;;10.70;99.90;;;;;;5025021;28;25127;-74
2023/02/18 10:35:16;;;;;;;16.95;2.60;;;10.70;99.90;;;;;;5029121;28;25057;-74
2023/02/18 10:38:11;;;;;;;19.02;3.13;;;10.80;99.90;;;;;;5023046;28;25064;-75
2023/02/18 10:40:55;;;;;;;14.98;2.33;;;10.80;99.90;;;;;;5029234;28;25079;-74
2023/02/18 10:43:45;;;;;;;12.73;2.53;;;10.80;99.90;;;;;;5012147;28;25057;-75
2023/02/18 10:46:55;;;;;;;14.52;2.83;;;10.80;99.90;;;;;;5023429;28;25101;-78
2023/02/18 10:49:35;;;;;;;22.67;3.63;;;10.90;99.90;;;;;;5026316;28;25144;-75
2023/02/18 10:52:04;;;;;;;12.88;3.10;;;10.90;99.90;;;;;;5028923;28;25068;-74
2023/02/18 10:54:59;;;;;;;17.05;2.33;;;10.90;99.90;;;;;;5030464;28;25073;-73
2023/02/18 10:57:25;;;;;;;23.10;2.88;;;10.90;99.90;;;;;;5030322;28;25068;-74
2023/02/18 11:00:14;;;;;;;18.58;3.45;;;10.90;99.90;;;;;;5029748;28;25067;-74
2023/02/18 11:02:41;;;;;;;18.20;2.70;;;10.90;99.90;;;;;;5025603;28;25052;-75
2023/02/18 11:05:22;;;;;;;21.45;3.42;;;10.90;99.90;;;;;;5030687;28;25103;-74
2023/02/18 11:07:51;;;;;;;14.53;2.80;;;10.90;99.90;;;;;;5024770;28;25054;-74
2023/02/18 11:10:23;;;;;;;26.77;3.60;;;11.00;99.90;;;;;;5030920;28;25161;-73
2023/02/18 11:12:54;;;;;;;17.20;2.67;;;11.00;99.90;;;;;;5029495;28;25075;-72
2023/02/18 11:15:26;;;;;;;17.83;3.43;;;11.00;99.90;;;;;;5008758;28;25061;-73
2023/02/18 11:17:54;;;;;;;9.75;2.40;;;11.00;99.90;;;;;;5026224;28;25097;-75
2023/02/18 11:20:23;;;;;;;8.80;2.40;;;11.00;99.90;;;;;;5022908;28;25062;-75
2023/02/18 11:22:49;;;;;;;19.33;4.07;;;11.10;99.90;;;;;;5031877;28;25091;-73
2023/02/18 11:25:22;;;;;;;20.95;5.03;;;11.10;99.90;;;;;;5034689;28;25132;-71
2023/02/18 11:27:55;;;;;;;15.05;2.72;;;11.20;99.90;;;;;;5043925;28;25055;-75
2023/02/18 11:30:20;;;;;;;14.18;3.08;;;11.20;99.90;;;;;;5021820;28;25109;-72
2023/02/18 11:32:50;;;;;;;14.40;2.47;;;11.20;99.90;;;;;;5018253;28;25065;-78
2023/02/18 11:35:19;;;;;;;20.42;4.05;;;11.20;99.90;;;;;;5020809;28;25082;-73
2023/02/18 11:37:46;;;;;;;24.75;3.42;;;11.20;99.90;;;;;;5026026;28;25050;-73
2023/02/18 11:40:24;;;;;;;16.73;2.58;;;11.30;99.90;;;;;;5021512;28;25073;-71
2023/02/18 11:42:50;;;;;;;10.35;2.50;;;11.30;99.90;;;;;;5006901;28;25069;-72
2023/02/18 11:45:30;;;;;;;23.10;2.88;;;11.40;99.90;;;;;;5019404;28;25068;-73
2023/02/18 11:48:22;;;;;;;14.85;3.35;;;11.40;99.90;;;;;;5016733;28;25160;-72
2023/02/18 11:50:52;;;;;;;15.55;2.75;;;11.40;99.90;;;;;;5020157;28;25069;-76
2023/02/18 11:53:35;;;;;;;13.00;3.72;;;11.40;99.90;;;;;;5020686;28;25099;-77
2023/02/18 11:56:04;;;;;;;24.02;3.22;;;11.40;99.90;;;;;;5017168;28;25147;-73
2023/02/18 11:58:42;;;;;;;22.42;3.40;;;11.40;99.90;;;;;;5017851;28;25051;-72
2023/02/18 12:01:14;;;;;;;14.98;2.90;;;11.40;99.90;;;;;;5021054;28;25070;-73
2023/02/18 12:03:52;;;;;;;19.73;3.22;;;11.40;99.90;;;;;;5021675;28;25076;-75
2023/02/18 12:06:22;;;;;;;14.15;2.65;;;11.40;99.90;;;;;;5025028;28;25071;-75
2023/02/18 12:08:52;;;;;;;15.02;3.00;;;11.30;99.90;;;;;;5026192;28;25150;-74
2023/02/18 12:11:35;;;;;;;22.50;4.03;;;11.30;99.90;;;;;;5012415;28;25050;-74
2023/02/18 12:14:00;;;;;;;23.90;4.10;;;11.30;99.90;;;;;;5020821;28;25050;-76
2023/02/18 12:16:46;;;;;;;16.90;3.65;;;11.20;99.90;;;;;;5027710;28;25060;-72
2023/02/18 12:19:26;;;;;;;24.33;4.25;;;11.20;99.90;;;;;;5025744;28;25091;-74
2023/02/18 12:22:15;;;;;;;12.13;3.20;;;11.30;99.90;;;;;;5021565;28;25104;-72
2023/02/18 12:25:01;;;;;;;13.75;2.80;;;11.30;99.90;;;;;;5028467;28;25058;-73
2023/02/18 12:27:46;;;;;;;26.83;3.78;;;11.30;99.90;;;;;;5033352;28;25062;-76
2023/02/18 12:30:49;;;;;;;26.17;3.33;;;11.40;99.90;;;;;;5028526;28;25055;-74
2023/02/18 12:33:22;;;;;;;15.88;3.70;;;11.30;99.90;;;;;;5011156;28;25121;-74
2023/02/18 12:36:00;;;;;;;25.15;4.22;;;11.50;99.90;;;;;;5027472;28;25079;-75
2023/02/18 12:38:38;;;;;;;18.20;2.88;;;11.40;99.90;;;;;;5033452;28;25079;-73
2023/02/18 12:41:34;;;;;;;12.48;2.50;;;11.40;99.90;;;;;;5024231;28;25153;-75
2023/02/18 12:44:16;;;;;;;24.83;3.35;;;11.50;99.90;;;;;;5024362;28;25092;-73
2023/02/18 12:47:00;;;;;;;22.35;3.22;;;11.40;99.90;;;;;;4990486;28;25054;-74
2023/02/18 12:49:47;;;;;;;13.25;3.47;;;11.60;99.90;;;;;;5032665;28;25059;-74